Time;durP1;ratioP1;P1;durP2;ratioP2;P2;SDS_P1;SDS_P2;PMS_P1;PMS_P2;Temp;Humidity;BMP_temperature;BMP_pressure;BME280_temperature;BME280_humidity;BME280_pressure;Samples;Min_cycle;Max_cycle;Signal;HPM_P1;HPM_P2
2021/03/28 00:03:32;;;;;;;11.63;7.90;;;;;;;8.01;60.06;99980.86;248619;1155;115250;-83
2021/03/28 00:08:35;;;;;;;12.58;7.45;;;;;;;7.93;59.97;99991.75;247221;1161;114522;-83
2021/03/28 00:13:47;;;;;;;12.30;7.38;;;;;;;7.97;60.25;99989.85;248666;1155;114820;-82
2021/03/28 00:18:55;;;;;;;14.73;9.20;;;;;;;8.00;60.55;99990.61;248142;1155;116642;-83
2021/03/28 00:24:31;;;;;;;13.03;8.80;;;;;;;8.01;60.94;99981.72;246131;1154;114902;-82
2021/03/28 00:29:55;;;;;;;12.97;8.50;;;;;;;7.98;60.21;99976.56;245313;1155;114545;-82
2021/03/28 00:35:07;;;;;;;12.95;8.33;;;;;;;7.98;60.95;99978.32;247678;1162;114579;-77
2021/03/28 00:40:09;;;;;;;15.23;9.48;;;;;;;7.91;60.24;99992.72;247510;1154;115348;-78
2021/03/28 00:45:40;;;;;;;14.30;9.58;;;;;;;7.88;60.92;99995.47;247221;1155;114551;-79
2021/03/28 00:50:52;;;;;;;14.58;9.63;;;;;;;7.86;61.04;99992.89;248575;1154;114962;-78
2021/03/28 00:55:59;;;;;;;16.58;9.73;;;;;;;7.87;61.29;100001.70;248444;1155;114561;-78
2021/03/28 01:01:23;;;;;;;16.20;10.15;;;;;;;7.83;60.42;100004.45;246507;1162;114790;-79
2021/03/28 01:06:41;;;;;;;12.75;9.18;;;;;;;7.83;61.31;100015.06;247277;1162;115020;-79
2021/03/28 01:12:24;;;;;;;12.45;8.85;;;;;;;7.91;61.09;100028.03;248987;1154;114982;-78
2021/03/28 01:17:36;;;;;;;14.08;8.93;;;;;;;7.90;61.13;100026.31;248139;1154;114796;-79
2021/03/28 01:22:52;;;;;;;16.78;9.70;;;;;;;7.87;60.56;100031.72;248580;1155;114848;-79
2021/03/28 01:28:24;;;;;;;14.05;9.33;;;;;;;7.85;60.13;100032.71;248624;1153;114849;-77
2021/03/28 01:33:49;;;;;;;15.20;9.20;;;;;;;7.81;60.31;100040.77;248549;1155;114909;-78
2021/03/28 01:39:11;;;;;;;16.00;10.00;;;;;;;7.77;60.20;100036.47;248609;1154;114730;-83
2021/03/28 01:44:42;;;;;;;20.52;11.10;;;;;;;7.72;60.61;100029.61;248389;1155;114823;-82
2021/03/28 01:50:24;;;;;;;18.15;11.75;;;;;;;7.57;60.18;100033.63;244260;1162;115092;-80
2021/03/28 01:55:50;;;;;;;17.95;12.25;;;;;;;7.52;60.13;100049.69;246809;1162;115148;-84
2021/03/28 02:01:17;;;;;;;16.93;11.10;;;;;;;7.51;60.66;100044.45;248294;1155;114900;-82
2021/03/28 02:06:26;;;;;;;18.77;10.83;;;;;;;7.40;59.95;100042.13;246092;1155;114652;-84
2021/03/28 02:11:56;;;;;;;20.43;10.83;;;;;;;7.40;60.39;100044.78;248592;1154;114903;-85
2021/03/28 02:17:26;;;;;;;12.80;7.78;;;;;;;7.42;60.06;100045.61;248381;1155;115267;-84
2021/03/28 02:23:13;;;;;;;16.60;8.38;;;;;;;7.31;59.80;100040.67;248521;1162;114973;-84
2021/03/28 02:28:33;;;;;;;14.23;8.00;;;;;;;7.37;59.68;100051.96;248386;1154;115071;-84
2021/03/28 02:33:51;;;;;;;12.80;6.60;;;;;;;7.37;59.05;100057.26;247953;1154;115578;-84
2021/03/28 02:39:26;;;;;;;12.67;6.03;;;;;;;7.31;58.92;100059.20;248457;1154;115245;-79
2021/03/28 02:45:02;;;;;;;13.50;6.13;;;;;;;7.26;59.13;100060.26;248605;1154;115478;-79
2021/03/28 02:50:27;;;;;;;10.38;5.75;;;;;;;7.23;58.43;100063.86;248500;1162;115228;-79
2021/03/28 02:55:54;;;;;;;9.73;5.58;;;;;;;7.22;58.83;100074.52;248401;1162;115662;-78
2021/03/28 03:01:15;;;;;;;10.00;5.68;;;;;;;7.14;58.23;100082.70;247931;1154;114750;-77
2021/03/28 03:06:45;;;;;;;10.27;5.97;;;;;;;7.13;57.93;100086.24;246046;1154;115095;-83
2021/03/28 03:12:13;;;;;;;13.78;5.88;;;;;;;7.05;57.55;100096.21;247209;1152;115754;-85
2021/03/28 03:17:46;;;;;;;13.53;6.80;;;;;;;7.02;57.65;100104.24;248384;1162;114607;-84
2021/03/28 03:23:03;;;;;;;14.67;6.83;;;;;;;6.98;57.62;100107.91;248571;1162;114995;-83
2021/03/28 03:28:38;;;;;;;13.28;5.75;;;;;;;6.94;57.89;100125.66;248652;1154;114723;-81
2021/03/28 03:33:56;;;;;;;12.25;6.88;;;;;;;6.91;57.75;100136.33;247550;1154;114705;-83
2021/03/28 03:39:15;;;;;;;11.23;5.63;;;;;;;6.84;57.29;100137.42;248634;1154;115442;-84
2021/03/28 03:44:43;;;;;;;10.38;4.20;;;;;;;6.68;57.67;100146.70;248598;1154;114725;-83
2021/03/28 03:50:10;;;;;;;8.00;3.95;;;;;;;6.53;57.73;100153.30;248534;1153;115310;-84
2021/03/28 03:55:22;;;;;;;7.85;4.55;;;;;;;6.38;57.69;100160.70;248603;1155;114464;-83
2021/03/28 04:00:29;;;;;;;9.88;4.58;;;;;;;6.35;58.24;100165.21;248553;1154;114595;-84
2021/03/28 04:05:51;;;;;;;9.03;4.63;;;;;;;6.38;58.50;100155.42;248521;1154;114466;-84
2021/03/28 04:11:15;;;;;;;10.90;4.88;;;;;;;6.28;58.34;100164.51;248607;1154;114496;-83
2021/03/28 04:16:53;;;;;;;9.85;5.15;;;;;;;6.20;58.62;100171.78;247958;1162;114866;-84
2021/03/28 04:22:14;;;;;;;14.30;5.85;;;;;;;6.15;58.39;100179.84;248644;1154;114438;-84
2021/03/28 04:27:36;;;;;;;13.53;6.30;;;;;;;6.12;59.04;100194.91;248467;1154;114785;-84
2021/03/28 04:32:52;;;;;;;15.25;7.03;;;;;;;6.08;58.55;100199.41;248577;1154;114418;-83
2021/03/28 04:38:12;;;;;;;11.98;6.90;;;;;;;6.08;58.64;100195.87;248568;1162;114689;-83
2021/03/28 04:43:49;;;;;;;15.55;7.53;;;;;;;6.01;59.04;100212.78;248519;1154;114753;-83
2021/03/28 04:49:18;;;;;;;15.18;7.23;;;;;;;5.99;59.10;100214.61;248557;1155;114696;-78
2021/03/28 04:55:02;;;;;;;11.75;6.68;;;;;;;5.90;59.66;100219.16;247563;1154;114803;-84
2021/03/28 05:00:22;;;;;;;13.18;7.70;;;;;;;5.86;59.68;100232.49;248630;1155;114399;-83
2021/03/28 05:05:51;;;;;;;14.45;8.45;;;;;;;5.86;60.14;100228.07;248599;1162;114311;-84
2021/03/28 05:11:31;;;;;;;19.30;10.58;;;;;;;5.95;59.68;100228.81;248548;1154;114770;-84
2021/03/28 05:17:03;;;;;;;20.35;10.48;;;;;;;6.03;60.27;100232.98;248640;1154;115610;-84
2021/03/28 05:22:31;;;;;;;15.70;9.70;;;;;;;6.04;60.14;100241.78;247971;1154;114848;-83
2021/03/28 05:27:55;;;;;;;16.20;9.20;;;;;;;6.13;60.17;100242.43;248611;1155;114234;-78
2021/03/28 05:33:31;;;;;;;16.85;8.15;;;;;;;6.23;60.50;100250.14;248538;1162;115320;-78
2021/03/28 05:38:52;;;;;;;14.53;7.47;;;;;;;6.31;60.03;100264.88;248653;1152;114795;-77
2021/03/28 05:44:03;;;;;;;14.20;7.13;;;;;;;6.31;59.07;100264.88;248547;1154;114696;-80
2021/03/28 05:49:21;;;;;;;13.10;7.70;;;;;;;6.30;59.19;100264.94;248523;1154;115108;-81
2021/03/28 05:55:26;;;;;;;15.53;7.70;;;;;;;6.32;59.63;100279.00;248505;1154;115890;-79
2021/03/28 06:01:01;;;;;;;13.25;7.50;;;;;;;6.35;58.80;100290.37;248565;1162;114793;-83
2021/03/28 06:06:41;;;;;;;14.85;7.08;;;;;;;6.34;58.63;100288.61;248654;1154;114798;-83
2021/03/28 06:12:21;;;;;;;10.10;6.53;;;;;;;6.42;59.48;100300.77;248280;1152;114287;-83
2021/03/28 06:17:36;;;;;;;13.10;7.93;;;;;;;6.51;58.63;100303.19;248542;1154;114797;-86
2021/03/28 06:22:41;;;;;;;13.15;7.13;;;;;;;6.56;58.85;100307.47;247403;1154;116119;-83
2021/03/28 06:28:06;;;;;;;15.50;8.05;;;;;;;6.57;59.33;100319.77;247396;1157;114898;-82
2021/03/28 06:33:25;;;;;;;15.48;8.20;;;;;;;6.60;59.43;100319.70;248484;1162;114806;-84
2021/03/28 06:39:06;;;;;;;14.33;8.23;;;;;;;6.70;59.31;100335.34;248011;1153;114644;-83
2021/03/28 06:44:17;;;;;;;17.45;8.08;;;;;;;6.78;59.30;100333.36;248575;1153;115192;-81
2021/03/28 06:49:35;;;;;;;14.83;7.67;;;;;;;6.85;59.22;100340.23;247506;1162;114800;-81
2021/03/28 06:54:57;;;;;;;18.93;9.03;;;;;;;6.88;58.65;100337.51;246535;1152;114975;-78
2021/03/28 07:00:23;;;;;;;12.75;6.83;;;;;;;6.89;58.40;100341.88;248568;1161;114836;-79
2021/03/28 07:05:51;;;;;;;15.73;8.28;;;;;;;6.85;58.52;100338.45;248652;1154;114734;-78
2021/03/28 07:11:12;;;;;;;15.35;9.43;;;;;;;6.83;58.54;100348.22;248574;1154;114641;-77
2021/03/28 07:16:59;;;;;;;15.25;8.95;;;;;;;6.87;58.03;100341.94;248603;1154;115444;-76
2021/03/28 07:22:19;;;;;;;16.10;10.00;;;;;;;6.92;58.89;100351.53;248361;1162;114789;-83
2021/03/28 07:27:31;;;;;;;17.38;9.60;;;;;;;6.86;58.76;100358.73;248499;1154;115623;-78
2021/03/28 07:32:43;;;;;;;20.15;10.70;;;;;;;6.78;58.59;100365.98;248509;1154;114505;-79
2021/03/28 07:38:14;;;;;;;17.63;10.83;;;;;;;6.75;58.80;100365.19;248589;1156;114793;-78
2021/03/28 07:43:47;;;;;;;17.18;10.98;;;;;;;6.75;58.73;100360.76;248228;1155;114944;-84
2021/03/28 07:49:16;;;;;;;13.98;10.35;;;;;;;6.81;59.28;100375.63;248360;1155;115529;-84
2021/03/28 07:54:28;;;;;;;19.60;10.73;;;;;;;6.93;59.05;100371.78;248189;1162;115395;-83
2021/03/28 07:59:44;;;;;;;18.50;10.68;;;;;;;7.06;58.75;100375.84;248563;1155;117894;-84
2021/03/28 08:05:14;;;;;;;16.38;8.80;;;;;;;7.22;58.57;100377.19;248645;1154;115291;-83
2021/03/28 08:10:41;;;;;;;11.63;7.78;;;;;;;7.29;58.60;100373.46;248671;1154;114665;-83
2021/03/28 08:16:05;;;;;;;11.67;6.50;;;;;;;7.49;57.83;100377.35;246155;1155;114564;-81
2021/03/28 08:21:11;;;;;;;8.88;5.88;;;;;;;7.67;57.32;100395.36;247583;1154;114645;-81
2021/03/28 08:26:13;;;;;;;8.60;5.93;;;;;;;7.73;57.10;100384.60;248517;1154;114235;-82
2021/03/28 08:31:22;;;;;;;10.78;6.35;;;;;;;7.80;56.04;100396.75;248603;1162;114532;-82
2021/03/28 08:37:02;;;;;;;10.50;6.28;;;;;;;7.79;56.17;100400.33;246806;1154;114760;-73
2021/03/28 08:42:37;;;;;;;10.95;5.95;;;;;;;7.79;55.28;100400.33;248503;1161;114710;-73
2021/03/28 08:48:18;;;;;;;10.13;5.28;;;;;;;7.75;55.46;100406.64;248359;1154;115150;-72
2021/03/28 08:53:58;;;;;;;9.53;5.17;;;;;;;7.81;55.52;100402.92;248459;1162;114800;-74
2021/03/28 08:59:28;;;;;;;9.10;6.00;;;;;;;7.79;55.11;100400.33;248681;1153;114660;-75
2021/03/28 09:05:08;;;;;;;8.23;4.60;;;;;;;7.89;54.31;100397.42;248543;1154;114498;-85
2021/03/28 09:10:50;;;;;;;7.45;4.85;;;;;;;8.00;54.15;100400.62;248068;1154;114965;-80
2021/03/28 09:15:55;;;;;;;10.33;5.40;;;;;;;8.18;54.69;100410.66;248407;1154;115135;-74
2021/03/28 09:21:11;;;;;;;7.38;4.50;;;;;;;8.33;54.13;100409.34;248613;1154;114823;-75
2021/03/28 09:26:55;;;;;;;9.20;4.63;;;;;;;8.47;53.93;100395.69;248475;1154;114555;-78
2021/03/28 09:32:09;;;;;;;6.08;4.95;;;;;;;8.70;53.22;100401.13;248324;1154;114944;-73
2021/03/28 09:37:24;;;;;;;7.73;4.75;;;;;;;8.82;52.96;100405.16;248370;1161;114511;-74
2021/03/28 09:42:51;;;;;;;8.93;4.70;;;;;;;8.91;52.75;100402.20;248506;1161;114440;-75
2021/03/28 09:48:03;;;;;;;7.55;4.73;;;;;;;8.90;52.29;100407.55;247174;1155;115613;-80
2021/03/28 09:53:33;;;;;;;8.70;5.60;;;;;;;9.34;54.23;100403.41;248570;1154;114699;-78
2021/03/28 09:59:05;;;;;;;9.60;5.28;;;;;;;9.22;52.11;100403.82;248302;1153;115129;-77
2021/03/28 10:04:19;;;;;;;8.47;5.57;;;;;;;9.05;51.50;100404.39;248745;1152;114858;-79
2021/03/28 10:09:40;;;;;;;11.83;5.68;;;;;;;9.09;51.97;100398.05;248707;1154;114427;-78
2021/03/28 10:14:57;;;;;;;6.65;4.65;;;;;;;9.28;51.84;100406.27;248712;1154;114750;-76
2021/03/28 10:20:19;;;;;;;21.30;11.70;;;;;;;9.73;54.36;100407.34;248868;1155;114943;-74
2021/03/28 10:25:29;;;;;;;7.93;4.23;;;;;;;10.64;53.40;100401.17;247153;1154;115228;-72
2021/03/28 10:30:44;;;;;;;7.75;4.95;;;;;;;10.41;50.84;100393.23;248655;1154;115220;-72
2021/03/28 10:36:09;;;;;;;7.88;4.03;;;;;;;10.08;50.28;100393.58;248596;1154;114754;-74
2021/03/28 10:41:41;;;;;;;11.60;4.40;;;;;;;10.00;50.20;100384.17;248622;1153;114890;-75
2021/03/28 10:47:08;;;;;;;8.65;4.03;;;;;;;10.22;50.01;100386.86;247175;1154;114985;-73
2021/03/28 10:52:23;;;;;;;9.93;4.25;;;;;;;10.34;49.51;100376.64;248498;1161;114873;-78
2021/03/28 10:57:37;;;;;;;5.53;3.33;;;;;;;10.42;49.08;100379.86;247836;1161;115203;-80
2021/03/28 11:03:17;;;;;;;7.33;3.83;;;;;;;10.59;49.16;100379.18;248442;1155;115190;-78
2021/03/28 11:08:30;;;;;;;7.95;4.43;;;;;;;10.83;48.76;100390.63;248427;1153;115113;-79
2021/03/28 11:13:58;;;;;;;8.83;4.20;;;;;;;11.03;48.85;100379.14;248447;1155;115278;-78
2021/03/28 11:19:37;;;;;;;13.23;6.30;;;;;;;10.84;47.96;100384.39;248422;1154;114970;-80
2021/03/28 11:24:54;;;;;;;8.40;3.55;;;;;;;10.77;47.76;100392.70;248422;1155;115446;-79
2021/03/28 11:30:35;;;;;;;7.45;3.93;;;;;;;10.79;47.59;100389.02;248490;1162;114880;-80
2021/03/28 11:35:56;;;;;;;6.63;3.25;;;;;;;11.08;47.04;100376.30;248385;1154;116216;-78
2021/03/28 11:41:11;;;;;;;7.43;4.00;;;;;;;11.09;46.73;100370.89;248291;1155;115242;-78
2021/03/28 11:46:17;;;;;;;7.45;3.33;;;;;;;11.18;46.45;100369.64;248520;1154;115028;-79
2021/03/28 11:51:37;;;;;;;9.08;3.58;;;;;;;11.08;46.50;100361.17;248525;1156;115352;-79
2021/03/28 11:56:49;;;;;;;7.25;3.65;;;;;;;11.69;46.73;100359.41;248618;1154;114893;-79
2021/03/28 12:01:55;;;;;;;8.48;2.90;;;;;;;12.27;46.82;100356.73;248566;1154;115082;-79
2021/03/28 12:07:16;;;;;;;5.78;3.13;;;;;;;12.17;45.10;100347.42;248527;1155;115031;-79
2021/03/28 12:12:22;;;;;;;5.03;2.85;;;;;;;11.86;44.74;100354.20;248491;1155;115028;-79
2021/03/28 12:17:29;;;;;;;7.83;3.28;;;;;;;11.80;44.65;100347.30;248437;1162;115047;-79
2021/03/28 12:22:37;;;;;;;6.88;3.38;;;;;;;12.39;45.52;100328.56;248469;1162;115112;-78
2021/03/28 12:27:58;;;;;;;5.65;2.98;;;;;;;12.94;44.75;100331.14;248233;1155;115744;-77
2021/03/28 12:33:06;;;;;;;6.33;3.00;;;;;;;12.77;43.86;100330.22;248283;1155;114885;-77
2021/03/28 12:38:41;;;;;;;5.63;3.00;;;;;;;12.41;43.22;100327.55;248422;1156;114972;-77
2021/03/28 12:43:57;;;;;;;6.05;3.00;;;;;;;12.03;43.14;100332.08;248288;1155;115480;-72
2021/03/28 12:49:08;;;;;;;6.73;2.95;;;;;;;11.95;42.99;100331.55;248386;1162;115636;-72
2021/03/28 12:54:25;;;;;;;5.03;2.60;;;;;;;11.80;43.09;100328.63;248474;1155;115114;-72
2021/03/28 12:59:32;;;;;;;6.08;2.80;;;;;;;11.64;42.40;100319.60;248417;1153;115227;-74
2021/03/28 13:04:37;;;;;;;7.43;3.93;;;;;;;11.59;42.90;100322.49;248375;1154;115101;-72
2021/03/28 13:09:41;;;;;;;5.23;2.65;;;;;;;12.11;42.92;100315.69;248490;1155;114895;-72
2021/03/28 13:14:49;;;;;;;6.20;2.63;;;;;;;11.99;42.40;100312.68;248372;1154;115257;-71
2021/03/28 13:20:12;;;;;;;4.90;2.85;;;;;;;12.44;43.42;100316.73;248502;1155;115158;-74
2021/03/28 13:25:17;;;;;;;7.83;3.43;;;;;;;12.71;42.37;100318.97;248322;1155;115327;-72
2021/03/28 13:30:25;;;;;;;6.78;3.60;;;;;;;12.72;42.39;100316.21;248481;1154;138374;-71
2021/03/28 13:35:34;;;;;;;8.50;3.50;;;;;;;13.04;42.53;100321.70;248410;1162;115115;-73
2021/03/28 13:40:49;;;;;;;7.95;3.15;;;;;;;13.07;41.90;100320.69;248362;1155;114954;-71
2021/03/28 13:46:04;;;;;;;5.88;3.03;;;;;;;12.84;41.65;100308.50;248298;1154;115005;-73
2021/03/28 13:51:13;;;;;;;7.97;4.00;;;;;;;12.75;41.72;100316.05;248409;1154;115023;-72
2021/03/28 13:56:26;;;;;;;10.23;3.80;;;;;;;12.57;41.24;100310.76;248495;1155;115482;-72
2021/03/28 14:01:40;;;;;;;9.60;4.03;;;;;;;12.39;42.02;100317.88;248337;1162;115551;-72
2021/03/28 14:06:45;;;;;;;8.98;3.93;;;;;;;12.28;41.64;100318.41;248650;1155;115014;-72
2021/03/28 14:11:48;;;;;;;7.23;4.15;;;;;;;12.19;41.17;100310.84;248420;1153;115127;-73
2021/03/28 14:16:54;;;;;;;11.63;4.40;;;;;;;12.14;42.37;100313.73;248591;1154;116646;-71
2021/03/28 14:22:12;;;;;;;8.48;3.55;;;;;;;12.07;41.62;100313.16;248431;1155;115130;-72
2021/03/28 14:27:31;;;;;;;10.08;4.18;;;;;;;11.97;41.27;100306.53;248247;1162;115049;-71
2021/03/28 14:32:41;;;;;;;9.55;4.03;;;;;;;11.88;41.38;100317.63;248363;1155;115380;-72
2021/03/28 14:38:23;;;;;;;8.83;4.43;;;;;;;12.27;41.99;100308.68;248546;1154;116161;-71
2021/03/28 14:43:35;;;;;;;6.95;3.95;;;;;;;12.05;41.31;100301.69;248489;1153;115039;-73
2021/03/28 14:49:18;;;;;;;12.53;4.10;;;;;;;11.97;41.87;100295.86;248347;1154;115156;-73
2021/03/28 14:54:46;;;;;;;6.73;3.60;;;;;;;11.90;41.26;100322.91;248418;1162;116312;-73
2021/03/28 15:00:20;;;;;;;9.45;4.05;;;;;;;11.83;40.69;100312.48;248559;1154;115139;-73
2021/03/28 15:05:44;;;;;;;6.95;3.30;;;;;;;11.74;41.50;100307.58;248314;1155;115306;-73
2021/03/28 15:10:56;;;;;;;7.98;3.23;;;;;;;11.64;40.53;100297.41;248620;1154;115117;-72
2021/03/28 15:16:06;;;;;;;6.03;3.58;;;;;;;11.55;40.76;100301.38;248376;1155;115978;-72
2021/03/28 15:21:18;;;;;;;8.97;3.40;;;;;;;11.50;41.19;100301.57;248512;1153;115124;-73
2021/03/28 15:26:51;;;;;;;7.18;3.18;;;;;;;11.46;40.51;100299.98;248273;1162;115148;-73
2021/03/28 15:32:09;;;;;;;5.40;2.73;;;;;;;11.43;40.37;100305.45;248451;1155;115220;-71
2021/03/28 15:37:37;;;;;;;6.13;3.08;;;;;;;11.37;40.22;100311.05;248219;1155;115758;-72
2021/03/28 15:42:43;;;;;;;7.85;3.60;;;;;;;11.40;39.96;100312.72;248405;1155;115124;-70
2021/03/28 15:48:13;;;;;;;8.93;3.50;;;;;;;11.36;40.55;100315.52;248416;1162;115403;-72
2021/03/28 15:53:34;;;;;;;7.38;3.35;;;;;;;11.33;40.29;100312.13;248343;1154;115453;-72
2021/03/28 15:59:02;;;;;;;9.23;3.80;;;;;;;11.27;40.36;100321.25;248385;1154;115120;-73
2021/03/28 16:04:26;;;;;;;6.80;3.20;;;;;;;11.25;40.43;100317.81;248457;1154;115293;-71
2021/03/28 16:10:25;;;;;;;6.35;3.23;;;;;;;11.16;40.16;100323.53;248468;1155;116018;-73
2021/03/28 16:15:49;;;;;;;8.25;3.80;;;;;;;11.10;40.34;100329.98;248215;1165;115408;-75
2021/03/28 16:21:10;;;;;;;7.58;3.40;;;;;;;11.04;39.94;100319.63;248431;1155;115674;-74
2021/03/28 16:26:23;;;;;;;9.53;3.28;;;;;;;10.99;40.49;100310.09;248423;1155;115165;-75
2021/03/28 16:31:53;;;;;;;8.10;3.33;;;;;;;10.93;40.28;100321.00;245877;1152;115231;-75
2021/03/28 16:37:19;;;;;;;7.75;3.43;;;;;;;10.85;40.21;100314.20;246810;1162;115350;-76
2021/03/28 16:42:35;;;;;;;7.88;3.10;;;;;;;10.77;40.30;100310.16;248255;1162;115352;-76
2021/03/28 16:48:04;;;;;;;6.15;3.23;;;;;;;10.77;40.51;100310.16;248252;1162;114872;-72
2021/03/28 16:53:09;;;;;;;7.43;3.45;;;;;;;10.75;40.50;100310.20;248316;1155;117357;-70
2021/03/28 16:58:34;;;;;;;6.78;3.43;;;;;;;10.74;40.30;100310.28;248339;1155;115534;-72
2021/03/28 17:03:41;;;;;;;7.98;3.65;;;;;;;10.72;40.76;100310.33;248409;1153;115052;-72
2021/03/28 17:08:54;;;;;;;10.98;3.60;;;;;;;10.69;40.71;100318.44;248449;1154;114932;-69
2021/03/28 17:14:06;;;;;;;7.50;3.75;;;;;;;10.64;40.51;100313.32;248385;1162;115184;-73
2021/03/28 17:19:12;;;;;;;6.25;3.48;;;;;;;10.58;40.50;100316.23;248221;1154;115396;-69
2021/03/28 17:24:45;;;;;;;7.30;3.55;;;;;;;10.52;40.87;100319.14;248410;1154;115179;-74
2021/03/28 17:29:52;;;;;;;10.93;4.05;;;;;;;10.49;40.82;100326.39;248000;1155;115482;-75
2021/03/28 17:34:55;;;;;;;9.70;3.70;;;;;;;10.45;40.68;100322.98;248095;1155;115116;-71
2021/03/28 17:39:59;;;;;;;9.15;3.75;;;;;;;10.40;40.78;100323.19;248475;1154;115550;-68
2021/03/28 17:45:06;;;;;;;9.50;4.60;;;;;;;10.35;40.71;100329.61;247883;1154;115118;-69
2021/03/28 17:50:14;;;;;;;7.20;3.80;;;;;;;10.32;40.84;100335.91;248545;1154;115459;-71
2021/03/28 17:55:33;;;;;;;10.63;5.10;;;;;;;10.27;41.50;100342.38;248278;1154;115831;-68
2021/03/28 18:00:46;;;;;;;9.63;4.83;;;;;;;10.17;41.37;100342.69;248479;1162;116192;-69
2021/03/28 18:06:04;;;;;;;11.08;5.13;;;;;;;10.12;41.46;100347.34;248219;1154;115756;-70
2021/03/28 18:11:23;;;;;;;15.90;5.67;;;;;;;10.08;41.42;100352.82;246225;1162;115256;-73
2021/03/28 18:16:26;;;;;;;15.43;5.73;;;;;;;10.03;41.65;100354.81;246363;1155;115631;-68
2021/03/28 18:21:35;;;;;;;11.80;5.75;;;;;;;9.97;41.77;100355.90;246402;1155;116029;-69
2021/03/28 18:26:51;;;;;;;12.85;5.28;;;;;;;9.93;41.87;100360.47;248461;1155;114998;-69
2021/03/28 18:32:02;;;;;;;14.08;6.25;;;;;;;9.88;42.15;100364.22;248530;1155;115775;-67
2021/03/28 18:37:43;;;;;;;16.70;5.70;;;;;;;9.80;42.16;100367.17;248440;1155;115419;-68
2021/03/28 18:43:00;;;;;;;14.73;6.20;;;;;;;9.66;42.68;100375.66;248439;1153;115024;-67
2021/03/28 18:48:29;;;;;;;11.93;6.10;;;;;;;9.49;42.99;100378.07;248556;1155;115140;-69
2021/03/28 18:53:35;;;;;;;16.90;6.93;;;;;;;9.31;43.28;100378.73;247409;1155;115077;-68
2021/03/28 18:58:52;;;;;;;21.60;6.98;;;;;;;9.12;43.75;100375.84;248572;1154;115107;-69
2021/03/28 19:04:25;;;;;;;18.03;6.30;;;;;;;8.98;43.82;100379.84;248601;1154;115678;-68
2021/03/28 19:09:42;;;;;;;19.75;7.68;;;;;;;8.85;44.06;100378.51;248447;1155;115053;-67
2021/03/28 19:14:45;;;;;;;17.35;7.30;;;;;;;8.73;44.16;100382.45;248552;1155;115365;-74
2021/03/28 19:20:01;;;;;;;15.80;7.15;;;;;;;8.63;44.88;100386.32;248414;1155;115072;-70
2021/03/28 19:25:04;;;;;;;24.43;7.27;;;;;;;8.51;44.63;100384.91;248341;1155;115470;-71
2021/03/28 19:30:16;;;;;;;16.08;7.00;;;;;;;8.43;45.41;100391.40;248362;1155;115000;-71
2021/03/28 19:35:33;;;;;;;19.20;7.73;;;;;;;8.33;45.48;100385.48;248339;1155;114984;-71
2021/03/28 19:40:45;;;;;;;24.98;9.15;;;;;;;8.24;45.39;100389.27;248454;1155;114642;-70
2021/03/28 19:46:58;;;;;;;24.08;8.98;;;;;;;8.12;45.98;100396.72;248400;1154;115400;-70
2021/03/28 19:51:27;;;;;;;21.37;7.77;;;;;;;7.98;46.79;100392.72;248425;1162;114755;-70
2021/03/28 19:56:30;;;;;;;16.63;7.13;;;;;;;7.88;47.24;100393.02;248503;1152;115112;-70
2021/03/28 20:01:37;;;;;;;22.53;7.68;;;;;;;7.78;46.91;100393.30;248447;1153;114960;-70
2021/03/28 20:06:39;;;;;;;20.28;8.20;;;;;;;7.68;47.63;100398.91;248466;1154;114805;-71
2021/03/28 20:11:43;;;;;;;23.63;8.73;;;;;;;7.56;47.33;100402.75;248582;1154;114855;-71
2021/03/28 20:16:48;;;;;;;22.95;9.83;;;;;;;7.46;48.01;100401.27;248510;1153;115702;-71
2021/03/28 20:22:12;;;;;;;25.90;10.63;;;;;;;7.36;48.51;100411.24;248460;1155;114963;-70
2021/03/28 20:27:17;;;;;;;22.38;11.10;;;;;;;7.23;48.84;100410.69;248532;1154;115141;-70
2021/03/28 20:32:21;;;;;;;;;;;;;;;7.15;48.45;100411.81;248392;1162;114807;-73
2021/03/28 20:37:27;;;;;;;28.68;11.60;;;;;;;7.05;49.06;100413.83;248548;1162;101049;-72
2021/03/28 20:42:36;;;;;;;42.03;19.23;;;;;;;6.96;49.19;100417.56;248456;1162;115462;-70
2021/03/28 20:47:44;;;;;;;45.23;20.18;;;;;;;6.87;49.12;100423.10;248664;1153;115832;-71
2021/03/28 20:52:55;;;;;;;51.48;23.75;;;;;;;6.80;49.63;100419.73;248335;1155;115259;-70
2021/03/28 20:57:59;;;;;;;51.05;22.50;;;;;;;6.73;50.50;100418.15;248369;1155;115364;-71
2021/03/28 21:03:06;;;;;;;52.17;24.37;;;;;;;6.66;50.66;100428.89;248513;1162;204149;-72
2021/03/28 21:08:12;;;;;;;56.88;27.18;;;;;;;6.59;50.82;100422.91;248464;1154;115088;-71
2021/03/28 21:13:24;;;;;;;53.20;26.80;;;;;;;6.53;50.23;100430.98;248426;1162;115034;-71
2021/03/28 21:18:29;;;;;;;63.03;28.55;;;;;;;6.45;50.95;100436.41;248542;1154;114924;-71
2021/03/28 21:23:31;;;;;;;;;;;;;;;6.38;51.42;100432.17;248474;1162;115061;-71
2021/03/28 21:28:34;;;;;;;73.65;33.15;;;;;;;6.28;50.83;100431.50;248264;1162;101615;-71
2021/03/28 21:33:37;;;;;;;71.83;36.40;;;;;;;6.20;51.02;100435.23;248523;1154;114950;-71
2021/03/28 21:38:46;;;;;;;75.68;36.80;;;;;;;6.12;51.07;100438.91;248504;1154;115543;-71
2021/03/28 21:43:49;;;;;;;76.83;37.13;;;;;;;6.06;51.59;100443.45;248361;1154;115224;-70
2021/03/28 21:48:53;;;;;;;76.05;39.00;;;;;;;5.99;51.96;100440.07;248463;1154;115188;-70
2021/03/28 21:53:57;;;;;;;86.10;40.38;;;;;;;5.90;52.41;100441.08;248300;1162;115287;-70
2021/03/28 21:58:59;;;;;;;79.80;39.13;;;;;;;5.83;51.82;100435.96;248470;1162;115739;-70
2021/03/28 22:04:10;;;;;;;82.83;39.60;;;;;;;5.72;52.45;100430.90;248386;1154;115096;-71
2021/03/28 22:09:18;;;;;;;82.28;40.55;;;;;;;5.67;52.70;100433.64;248444;1156;114965;-70
2021/03/28 22:14:25;;;;;;;78.83;41.45;;;;;;;5.59;52.71;100427.63;248473;1155;115373;-71
2021/03/28 22:19:32;;;;;;;86.28;41.65;;;;;;;5.55;52.89;100433.87;248411;1162;115530;-71
2021/03/28 22:24:40;;;;;;;91.70;43.27;;;;;;;5.49;52.89;100435.75;248372;1154;114956;-71
2021/03/28 22:29:43;;;;;;;86.05;43.33;;;;;;;5.43;52.91;100434.98;248424;1156;115322;-71
2021/03/28 22:34:50;;;;;;;94.35;44.30;;;;;;;5.39;53.28;100435.91;248394;1155;115357;-71
2021/03/28 22:39:57;;;;;;;94.78;44.35;;;;;;;5.30;52.98;100424.64;248326;1155;115043;-71
2021/03/28 22:45:09;;;;;;;82.53;42.23;;;;;;;5.25;53.45;100424.73;248449;1154;115249;-71
2021/03/28 22:50:15;;;;;;;89.48;44.20;;;;;;;5.20;53.57;100419.55;248540;1155;115498;-71
2021/03/28 22:55:28;;;;;;;84.75;43.55;;;;;;;5.17;53.53;100424.88;248410;1161;115703;-71
2021/03/28 23:00:31;;;;;;;93.18;45.45;;;;;;;5.10;53.71;100430.30;248464;1155;114943;-71
2021/03/28 23:05:34;;;;;;;94.90;46.50;;;;;;;5.00;54.04;100426.08;248529;1154;115878;-71
2021/03/28 23:11:14;;;;;;;108.55;59.53;;;;;;;5.28;53.70;100424.69;266301;1090;103046;-71
2021/03/28 23:16:24;;;;;;;93.40;44.20;;;;;;;5.19;53.48;100428.34;266075;1092;114642;-71
2021/03/28 23:21:45;;;;;;;90.85;43.63;;;;;;;5.07;53.80;100427.72;266219;1091;114244;-71
2021/03/28 23:26:50;;;;;;;82.40;42.88;;;;;;;4.95;54.28;100426.14;265929;1091;114616;-71
2021/03/28 23:31:54;;;;;;;90.20;44.85;;;;;;;4.87;54.01;100423.64;265855;1091;114148;-70
2021/03/28 23:36:57;;;;;;;87.72;42.10;;;;;;;4.83;53.98;100416.67;265883;1091;114237;-70
2021/03/28 23:42:04;;;;;;;88.58;43.63;;;;;;;4.79;54.69;100417.63;266233;1091;114587;-74
2021/03/28 23:47:13;;;;;;;88.48;42.88;;;;;;;4.71;54.84;100415.09;266061;1091;114195;-70
2021/03/28 23:52:17;;;;;;;89.03;42.88;;;;;;;4.66;54.98;100414.31;265880;1092;114503;-74
2021/03/28 23:57:20;;;;;;;89.05;43.20;;;;;;;4.61;54.69;100417.91;265768;1091;114412;-74
